Aviation Digital Data Service (ADDS)

Output produced by METARs form (0640 UTC 27 March 2017)
found at http://www.aviationweather.gov/adds/metars/
 
EFET 270620Z AUTO 21003KT CAVOK M06/M09 Q0996
EFHA 270620Z 29012KT CAVOK 02/M04 Q1007
TAF AMD EFHA 270624Z 2706/2714 30013KT CAVOK 
     TEMPO 2709/2712 24010KT 6000 -SHSNRA BKN013 SCT020CB 
     TEMPO 2712/2714 29015G25KT -SHRA BKN009 SCT020CB
       
EFHK 270620Z 31015KT CAVOK 03/M04 Q1010 NOSIG
TAF EFHK 270538Z 2706/2806 28013KT CAVOK 
     BECMG 2715/2717 30019G30KT 
     BECMG 2722/2724 31014KT
       
EFIV 270620Z AUTO 29007KT CAVOK M02/M07 Q0995
TAF EFIV 270526Z 2706/2715 28008KT 9999 SCT030 
     PROB30 2708/2715 2000 SHSN SCT030CB BKN100
       
EFJO 270620Z 29012KT 260V330 9999 FEW037 00/M05 Q1001
TAF EFJO 270536Z 2706/2715 29014KT CAVOK 
     TEMPO 2706/2709 29014G24KT 
     TEMPO 2713/2715 4000 -SHSN
       
EFJY 270620Z 29011KT CAVOK 01/M06 Q1005
TAF EFJY 270543Z 2706/2806 31012KT CAVOK 
     BECMG 2711/2713 22011KT BKN013 
     PROB40 2712/2714 6000 -RASN BKN008 
     BECMG 2715/2717 30020G34KT BKN020 
     BECMG 2719/2722 31015KT
       
EFKI 270620Z 28007KT 240V310 CAVOK M01/M06 Q1001
TAF EFKI 270536Z 2706/2715 29012KT CAVOK 
     TEMPO 2712/2715 03007KT 2000 -SHSN
       
EFKE 270620Z AUTO 25006KT 220V280 CAVOK M00/M05 Q1001
TAF EFKE 270526Z 2706/2715 26008KT CAVOK 
     TEMPO 2707/2712 1400 SN BKN008 
     BECMG 2712/2714 36010KT 
     PROB30 2712/2715 1500 SHSN BKN010 SCT020CB
       
EFKT 270620Z 22003KT CAVOK M03/M08 Q0997
TAF EFKT 270526Z 2706/2715 29007KT 9999 FEW020 BKN050 
     TEMPO 2707/2715 1000 SHSN SCT008 BKN020CB
       
EFKK 270620Z 24006KT 200V280 2000 -SNRA VV013 01/M01 Q1007
TAF AMD EFKK 270636Z 2706/2715 25008KT CAVOK 
     TEMPO 2706/2709 2000 -SNRA VV010 
     TEMPO 2709/2712 27012G22KT 2000 -SNRA BKN008 
     TEMPO 2712/2715 33015G32KT BKN008
       
EFKU 270620Z 29012KT CAVOK 01/M05 Q1003
TAF EFKU 270536Z 2706/2806 30013KT CAVOK 
     BECMG 2711/2712 25009KT 3000 -SN 
     TEMPO 2712/2717 1400 SN VV008 
     BECMG 2717/2719 35014KT 9999 BKN012 
     TEMPO 2717/2803 35015G28KT 4000 -SHSN
       
EFKS 270620Z AUTO 29008KT 250V320 9999 OVC027 M02/M06 Q0997
TAF EFKS 270526Z 2706/2714 28010G20KT 9999 SCT020 BKN150 
     TEMPO 2706/2714 1500 SHSN SCT030CB
       
EFLP 270620Z AUTO 31009KT 220V360 CAVOK 02/M06 Q1004
EFMA 270620Z 27005KT 230V310 CAVOK 05/01 Q1015
TAF EFMA 270538Z 2706/2715 27007KT CAVOK 
     BECMG 2713/2715 32015G28KT
       
EFMI 270620Z AUTO 29009KT 250V350 CAVOK 02/M06 Q1005
EFOU 270620Z AUTO 27009KT 9999 OVC086 M00/M04 Q1002 RMK R12/0/0095
TAF EFOU 270526Z 2706/2806 28013KT 9999 FEW015 BKN080 
     BECMG 2708/2710 1200 SN BKN007 
     BECMG 2712/2714 03005KT 9999 NSW SCT010 BKN025 
     PROB30 2714/2716 BKN010 
     BECMG 2716/2717 33012KT 
     TEMPO 2717/2804 35015G25KT 0700 SHSN BKN005 BKN010CB
       
EFPO 270620Z AUTO 29013KT CAVOK 04/M00 Q1011 R12/0/0095
TAF EFPO 270538Z 2706/2715 31013KT CAVOK 
     BECMG 2707/2709 24011KT 
     PROB30 2708/2711 BKN013 
     TEMPO 2711/2715 29018G30KT
       
EFRO 270620Z 25006KT CAVOK M03/M07 Q0998
TAF EFRO 270526Z 2706/2806 29009KT 9999 FEW015 BKN100 
     TEMPO 2709/2724 1200 SHSN SCT005 BKN020CB
       
EFSA 270620Z 30010G22KT 270V340 CAVOK 01/M06 Q1002
TAF EFSA 270536Z 2706/2715 29012KT CAVOK 
     TEMPO 2713/2715 2000 -SHSN
       
EFSI 270620Z AUTO 27006KT 220V320 CAVOK 03/M02 Q1008
EFTP 270620Z 27008KT CAVOK 03/M02 Q1010
TAF EFTP 270538Z 2706/2806 30010KT CAVOK 
     BECMG 2709/2711 24011KT 
     PROB30 2709/2713 BKN013 SCT020CB 
     BECMG 2713/2715 29018G28KT 
     BECMG 2718/2721 32012KT
       
EFTU 270620Z AUTO 28007KT 260V320 CAVOK 05/M01 Q1012 RMK R08/0/0095
TAF EFTU 270538Z 2706/2806 29009KT CAVOK 
     BECMG 2713/2715 30016G29KT 
     BECMG 2719/2721 32012KT
       
EFUT 270620Z 30010KT 260V340 CAVOK 02/M05 Q1006
TAF EFUT 270536Z 2706/2713 30010KT CAVOK 
     TEMPO 2712/2713 6000 -SHRASN
       
EFVA 270620Z AUTO 28010KT 240V300 9999 -RA FEW043 OVC073 03/M01 Q1008 RMK R16/0/0095
TAF AMD EFVA 270630Z 2706/2806 29006KT CAVOK 
     BECMG 2706/2708 23012KT 
     TEMPO 2708/2711 25016G26KT 4000 -RASN BKN008 
     BECMG 2712/2714 32018G36KT 
     PROB30 2714/2716 FEW050CB 
     BECMG 2716/2718 32012KT